Ubc Canada — 5BYX2 — position and weather

sailwx.info

Track history (hours):
 
Tides and Currents Weather Stations Pressure Air Temp Water Temp Dewpoint Dewpoint Depression Visibility Wind Speed Wind Dir Waves Ship Positions

Ubc Canada

Last reported at 2017-Oct-05 17:33 UTC. Time now 2017-Oct-23 06:30 UTC.
Position S 26°23' E 153°49'.
Warning: this ship's position is 17 days out of date.

Length 132 m; draft 4.4 m.

Type: Cargo ship. MMSI: 212297000.

Date/timePositionNaut miles runAvg speedWind from/ knotsBaromVisibWave heightAir tempDewpointWater temp
2017-Oct-05 17:33S 26°23' E 153°49'411.4
2017-Oct-05 17:10S 26°27' E 153°49'311.7
2017-Oct-05 16:55S 26°30' E 153°49'2911.2
2017-Oct-05 14:19S 26°59' E 153°50'310.5
2017-Oct-05 14:01S 27°02' E 153°50'510.5
2017-Oct-05 13:30S 27°08' E 153°50'610.4
2017-Oct-05 12:54S 27°14' E 153°50'410.4
2017-Oct-05 12:30S 27°18' E 153°50'610.2
2017-Oct-05 11:54S 27°24' E 153°50'410.1
2017-Oct-05 11:28S 27°28' E 153°50'610.1
2017-Oct-05 10:53S 27°34' E 153°50'710.0
2017-Oct-05 10:08S 27°42' E 153°51'210.0
2017-Oct-05 09:59S 27°43' E 153°51'510.0
2017-Oct-05 09:30S 27°48' E 153°51'5 9.9
2017-Oct-05 09:00S 27°53' E 153°51'5 9.8
2017-Oct-05 08:30S 27°58' E 153°51'5 9.6
2017-Oct-05 08:00S 28°03' E 153°51'5 9.6
2017-Oct-05 07:30S 28°08' E 153°51'5 9.6
2017-Oct-05 07:00S 28°12' E 153°51'5 9.7
2017-Oct-05 06:30S 28°17' E 153°51'5 9.8
2017-Oct-05 06:00S 28°22' E 153°52'5 9.7
2017-Oct-05 05:30S 28°27' E 153°52'5 9.5
2017-Oct-05 05:00S 28°32' E 153°52'5 9.5
2017-Oct-05 04:30S 28°37' E 153°52'5 9.5
2017-Oct-05 03:58S 28°42' E 153°51'23710.6
2017-Oct-04 05:41S 32°31' E 152°46'410.0
2017-Oct-04 05:18S 32°34' E 152°43'310.1
2017-Oct-04 05:01S 32°36' E 152°40'611.1
2017-Oct-04 04:31S 32°41' E 152°36'611.5
2017-Oct-04 04:01S 32°45' E 152°32'611.8
2017-Oct-04 03:30S 32°49' E 152°27'612.4
2017-Oct-04 03:01S 32°54' E 152°22'612.8
2017-Oct-04 02:31S 32°59' E 152°17'612.6
2017-Oct-04 02:00S 33°04' E 152°12'612.7
2017-Oct-04 01:31S 33°08' E 152°07'3512.5
2017-Oct-03 22:41S 33°34' E 151°39'412.4
2017-Oct-03 22:21S 33°37' E 151°35'412.5
2017-Oct-03 22:01S 33°40' E 151°32'612.0
2017-Oct-03 21:29S 33°44' E 151°26'1 0.0
2017-Oct-02 11:46S 33°45' E 151°26'311.6
2017-Oct-02 11:29S 33°43' E 151°29'611.9
2017-Oct-02 10:58S 33°38' E 151°34'4011.8
2017-Oct-02 07:36S 33°08' E 152°04'111.5
2017-Oct-02 07:29S 33°07' E 152°05'611.7
2017-Oct-02 07:00S 33°03' E 152°10'611.6
2017-Oct-02 06:30S 32°58' E 152°14'611.7
2017-Oct-02 06:00S 32°54' E 152°19'611.7
2017-Oct-02 05:30S 32°49' E 152°23'611.7
2017-Oct-02 05:00S 32°45' E 152°28'611.4
2017-Oct-02 04:30S 32°41' E 152°32'611.5
2017-Oct-02 04:00S 32°36' E 152°36'1211.5
2017-Oct-02 02:56S 32°26' E 152°44'24111.8
2017-Oct-01 06:32S 28°31' E 153°47'011.5
2017-Oct-01 06:30S 28°30' E 153°47'612.0
2017-Oct-01 06:00S 28°24' E 153°47'612.7
2017-Oct-01 05:30S 28°18' E 153°47'712.9
2017-Oct-01 05:00S 28°12' E 153°47'612.8
2017-Oct-01 04:30S 28°05' E 153°47'612.7
2017-Oct-01 04:00S 27°59' E 153°47'612.5
2017-Oct-01 03:30S 27°53' E 153°47'612.3
2017-Oct-01 02:59S 27°46' E 153°47'277 8.4
2017-Sep-29 17:45S 23°47' E 151°11'0 0.0
2017-Sep-29 17:18S 23°47' E 151°11'0 0.0
2017-Sep-29 15:21S 23°47' E 151°11'0 0.0
2017-Sep-29 14:48S 23°47' E 151°11'0 0.0
2017-Sep-28 13:25S 23°47' E 151°11'3 2.5
2017-Sep-28 12:21S 23°48' E 151°13'3 9.5
2017-Sep-28 12:00S 23°50' E 151°16'5 9.4
2017-Sep-28 11:30S 23°52' E 151°21'610.8
2017-Sep-28 10:58S 23°56' E 151°26'510.6
2017-Sep-28 10:30S 23°54' E 151°31'4 6.3
2017-Sep-28 09:55S 23°51' E 151°34'2 4.4
2017-Sep-28 09:28S 23°51' E 151°36'  
Track history (hours):
 
Tides and Currents Weather Stations Pressure Air Temp Water Temp Dewpoint Dewpoint Depression Visibility Wind Speed Wind Dir Waves Ship Positions

Ubc Canada

Last reported at 2017-Oct-05 17:33 UTC. Time now 2017-Oct-23 06:30 UTC.
Position S 26°23' E 153°49'.
Warning: this ship's position is 17 days out of date.

Length 132 m; draft 4.4 m.

Type: Cargo ship. MMSI: 212297000.

Date/timePositionNaut miles runAvg speedWind from/ knotsBaromVisibWave heightAir tempDewpointWater temp
2017-Oct-05 17:33S 26°23' E 153°49'411.4
2017-Oct-05 17:10S 26°27' E 153°49'311.7
2017-Oct-05 16:55S 26°30' E 153°49'2911.2
2017-Oct-05 14:19S 26°59' E 153°50'310.5
2017-Oct-05 14:01S 27°02' E 153°50'510.5
2017-Oct-05 13:30S 27°08' E 153°50'610.4
2017-Oct-05 12:54S 27°14' E 153°50'410.4
2017-Oct-05 12:30S 27°18' E 153°50'610.2
2017-Oct-05 11:54S 27°24' E 153°50'410.1
2017-Oct-05 11:28S 27°28' E 153°50'610.1
2017-Oct-05 10:53S 27°34' E 153°50'710.0
2017-Oct-05 10:08S 27°42' E 153°51'210.0
2017-Oct-05 09:59S 27°43' E 153°51'510.0
2017-Oct-05 09:30S 27°48' E 153°51'5 9.9
2017-Oct-05 09:00S 27°53' E 153°51'5 9.8
2017-Oct-05 08:30S 27°58' E 153°51'5 9.6
2017-Oct-05 08:00S 28°03' E 153°51'5 9.6
2017-Oct-05 07:30S 28°08' E 153°51'5 9.6
2017-Oct-05 07:00S 28°12' E 153°51'5 9.7
2017-Oct-05 06:30S 28°17' E 153°51'5 9.8
2017-Oct-05 06:00S 28°22' E 153°52'5 9.7
2017-Oct-05 05:30S 28°27' E 153°52'5 9.5
2017-Oct-05 05:00S 28°32' E 153°52'5 9.5
2017-Oct-05 04:30S 28°37' E 153°52'5 9.5
2017-Oct-05 03:58S 28°42' E 153°51'23710.6
2017-Oct-04 05:41S 32°31' E 152°46'410.0
2017-Oct-04 05:18S 32°34' E 152°43'310.1
2017-Oct-04 05:01S 32°36' E 152°40'611.1
2017-Oct-04 04:31S 32°41' E 152°36'611.5
2017-Oct-04 04:01S 32°45' E 152°32'611.8
2017-Oct-04 03:30S 32°49' E 152°27'612.4
2017-Oct-04 03:01S 32°54' E 152°22'612.8
2017-Oct-04 02:31S 32°59' E 152°17'612.6
2017-Oct-04 02:00S 33°04' E 152°12'612.7
2017-Oct-04 01:31S 33°08' E 152°07'3512.5
2017-Oct-03 22:41S 33°34' E 151°39'412.4
2017-Oct-03 22:21S 33°37' E 151°35'412.5
2017-Oct-03 22:01S 33°40' E 151°32'612.0
2017-Oct-03 21:29S 33°44' E 151°26'1 0.0
2017-Oct-02 11:46S 33°45' E 151°26'311.6
2017-Oct-02 11:29S 33°43' E 151°29'611.9
2017-Oct-02 10:58S 33°38' E 151°34'4011.8
2017-Oct-02 07:36S 33°08' E 152°04'111.5
2017-Oct-02 07:29S 33°07' E 152°05'611.7
2017-Oct-02 07:00S 33°03' E 152°10'611.6
2017-Oct-02 06:30S 32°58' E 152°14'611.7
2017-Oct-02 06:00S 32°54' E 152°19'611.7
2017-Oct-02 05:30S 32°49' E 152°23'611.7
2017-Oct-02 05:00S 32°45' E 152°28'611.4
2017-Oct-02 04:30S 32°41' E 152°32'611.5
2017-Oct-02 04:00S 32°36' E 152°36'1211.5
2017-Oct-02 02:56S 32°26' E 152°44'24111.8
2017-Oct-01 06:32S 28°31' E 153°47'011.5
2017-Oct-01 06:30S 28°30' E 153°47'612.0
2017-Oct-01 06:00S 28°24' E 153°47'612.7
2017-Oct-01 05:30S 28°18' E 153°47'712.9
2017-Oct-01 05:00S 28°12' E 153°47'612.8
2017-Oct-01 04:30S 28°05' E 153°47'612.7
2017-Oct-01 04:00S 27°59' E 153°47'612.5
2017-Oct-01 03:30S 27°53' E 153°47'612.3
2017-Oct-01 02:59S 27°46' E 153°47'277 8.4
2017-Sep-29 17:45S 23°47' E 151°11'0 0.0
2017-Sep-29 17:18S 23°47' E 151°11'0 0.0
2017-Sep-29 15:21S 23°47' E 151°11'0 0.0
2017-Sep-29 14:48S 23°47' E 151°11'0 0.0
2017-Sep-28 13:25S 23°47' E 151°11'3 2.5
2017-Sep-28 12:21S 23°48' E 151°13'3 9.5
2017-Sep-28 12:00S 23°50' E 151°16'5 9.4
2017-Sep-28 11:30S 23°52' E 151°21'610.8
2017-Sep-28 10:58S 23°56' E 151°26'510.6
2017-Sep-28 10:30S 23°54' E 151°31'4 6.3
2017-Sep-28 09:55S 23°51' E 151°34'2 4.4
2017-Sep-28 09:28S 23°51' E 151°36'  

Dump ship's entire track history